St. Catharines Glass Ave

*Note: All times are displayed in the local standard time of the station location.
**Rain - Equipment is designed to accurately record liquid precipitation; under conditions when precipitation is not in liquid form, the data displayed may not properly reflect rainfall values.

Date Max Temp
(°C)
Min Temp
(°C)
Avg Temp
(°C)
Rain (mm) Avg RH (%)
Mon, Apr 23, 2018 13.1 -1.6 5.4 0.0 73.8
Sun, Apr 22, 2018 15.9 -2.7 6.8 0.0 56.9
Sat, Apr 21, 2018 14.5 -3.4 5.7 0.0 57.5
Fri, Apr 20, 2018 8.9 -1.2 3.2 0.0 60.2
Thu, Apr 19, 2018 5.1 1.0 2.6 0.0 65.7
Wed, Apr 18, 2018 4.4 0.9 2.5 0.0 73.9
Tue, Apr 17, 2018 2.0 -0.7 1.0 0.2 72.6
DateTime Avg Temp (°C) Rain (mm) RH (%)
Tue, Apr 24, 2018 18:00 13.1 0.6 81.8
Tue, Apr 24, 2018 17:00 14.6 0.0 66.5
Tue, Apr 24, 2018 16:00 16.2 0.0 53.0
Tue, Apr 24, 2018 15:00 17.6 0.0 45.0
Tue, Apr 24, 2018 14:00 18.2 0.0 42.5
Tue, Apr 24, 2018 13:00 17.8 0.0 42.8
Tue, Apr 24, 2018 12:00 16.6 0.0 46.0
Tue, Apr 24, 2018 11:00 14.5 0.0 56.8
Tue, Apr 24, 2018 10:00 13.9 0.0 62.3
Tue, Apr 24, 2018 09:00 13.8 0.0 61.0
Tue, Apr 24, 2018 08:00 12.7 0.0 62.3
Tue, Apr 24, 2018 07:00 10.5 0.0 70.3
Tue, Apr 24, 2018 06:00 10.9 0.0 68.0
Tue, Apr 24, 2018 05:00 5.2 0.0 84.0
Tue, Apr 24, 2018 04:00 3.5 0.0 88.8
Tue, Apr 24, 2018 03:00 3.8 0.0 88.5
Tue, Apr 24, 2018 02:00 3.9 0.0 87.8
Tue, Apr 24, 2018 01:00 4.1 0.0 84.5
Tue, Apr 24, 2018 00:00 4.9 0.0 77.8
Mon, Apr 23, 2018 23:00 5.0 0.0 76.3
Mon, Apr 23, 2018 22:00 5.3 0.0 76.5
Mon, Apr 23, 2018 21:00 5.7 0.0 72.3
Mon, Apr 23, 2018 20:00 6.7 0.0 67.3
Mon, Apr 23, 2018 19:00 7.9 0.0 64.0
Mon, Apr 23, 2018 18:00 9.1 0.0 59.5
Mon, Apr 23, 2018 17:00 9.4 0.0 60.3
Mon, Apr 23, 2018 16:00 10.8 0.0 60.5
Mon, Apr 23, 2018 15:00 11.6 0.0 58.3
Mon, Apr 23, 2018 14:00 9.8 0.0 64.5
Mon, Apr 23, 2018 13:00 9.2 0.0 65.8
Mon, Apr 23, 2018 12:00 9.7 0.0 61.5
Mon, Apr 23, 2018 11:00 8.6 0.0 67.0
Mon, Apr 23, 2018 10:00 9.2 0.0 61.3
Mon, Apr 23, 2018 09:00 6.7 0.0 69.5
Mon, Apr 23, 2018 08:00 2.4 0.0 78.0
Mon, Apr 23, 2018 07:00 -1.5 0.0 92.0
Mon, Apr 23, 2018 06:00 -1.5 0.0 93.0
Mon, Apr 23, 2018 05:00 -1.1 0.0 93.0
Mon, Apr 23, 2018 04:00 -0.6 0.0 92.5
Mon, Apr 23, 2018 03:00 0.1 0.0 90.0
Mon, Apr 23, 2018 02:00 0.8 0.0 87.5
Mon, Apr 23, 2018 01:00 1.7 0.0 83.0
Mon, Apr 23, 2018 00:00 2.9 0.0 78.3
Sun, Apr 22, 2018 23:00 4.3 0.0 71.5
Sun, Apr 22, 2018 22:00 5.9 0.0 69.3
Sun, Apr 22, 2018 21:00 8.7 0.0 50.8
Sun, Apr 22, 2018 20:00 13.3 0.0 27.0
Sun, Apr 22, 2018 19:00 15.2 0.0 21.8


asterix Register now to access more data! asterix